createdAt,value
2023-01-29T00:01:46.506Z,100058.86
2023-01-29T00:04:20.282Z,100058.02
2023-01-29T00:06:50.147Z,100057.19
2023-01-29T00:09:19.540Z,100060.20
2023-01-29T00:11:48.508Z,100062.86
2023-01-29T00:14:17.125Z,100068.00
2023-01-29T00:16:46.404Z,100067.85
2023-01-29T00:19:14.841Z,100068.06
2023-01-29T00:21:43.745Z,100063.18
2023-01-29T00:24:17.113Z,100067.32
2023-01-29T00:26:45.581Z,100068.13
2023-01-29T00:29:15.280Z,100066.81
2023-01-29T00:31:45.829Z,100068.27
2023-01-29T00:34:14.925Z,100067.97
2023-01-29T00:36:46.154Z,100067.64
2023-01-29T00:39:14.672Z,100071.70
2023-01-29T00:42:05.330Z,100073.80
2023-01-29T00:44:55.071Z,100076.74
2023-01-29T00:47:34.584Z,100077.64
2023-01-29T00:50:28.850Z,100074.29
2023-01-29T00:52:57.803Z,100071.65
2023-01-29T00:55:31.365Z,100072.19
2023-01-29T00:58:15.869Z,100069.38
2023-01-29T01:00:45.553Z,100065.17
2023-01-29T01:03:16.959Z,100069.72
2023-01-29T01:05:45.381Z,100067.95
2023-01-29T01:08:32.516Z,100063.27
2023-01-29T01:11:04.162Z,100061.56
2023-01-29T01:13:35.047Z,100057.89
2023-01-29T01:16:11.580Z,100061.60
2023-01-29T01:18:40.153Z,100066.54
2023-01-29T01:21:12.469Z,100070.06
2023-01-29T01:23:43.758Z,100074.30
2023-01-29T01:26:15.412Z,100072.75
2023-01-29T01:28:44.785Z,100080.15
2023-01-29T01:31:13.885Z,100077.04
2023-01-29T01:33:42.271Z,100074.47
2023-01-29T01:36:11.281Z,100068.04
2023-01-29T01:38:45.812Z,100066.84
2023-01-29T01:41:19.144Z,100069.86
2023-01-29T01:44:03.988Z,100071.30
2023-01-29T01:46:36.237Z,100071.00
2023-01-29T01:49:05.958Z,100070.70
2023-01-29T01:51:42.114Z,100071.83
2023-01-29T08:58:12.292Z,100081.38
2023-01-29T09:00:39.454Z,100076.75
2023-01-29T09:03:07.421Z,100078.02
2023-01-29T09:05:35.555Z,100077.70
2023-01-29T09:08:02.743Z,100072.70
2023-01-29T09:10:37.978Z,100071.56
2023-01-29T09:13:04.943Z,100068.79
2023-01-29T09:15:33.609Z,100067.83
2023-01-29T09:18:09.438Z,100067.96
2023-01-29T09:20:38.422Z,100066.46
2023-01-29T09:23:08.116Z,100063.15
2023-01-29T09:25:37.064Z,100061.41
2023-01-29T09:28:06.850Z,100058.65
2023-01-29T09:30:37.782Z,100055.95
2023-01-29T09:33:10.427Z,100053.96
2023-01-29T09:35:40.304Z,100053.15
2023-01-29T09:38:10.449Z,100048.88
2023-01-29T09:40:41.264Z,100045.10
2023-01-29T09:43:15.162Z,100042.42
2023-01-29T09:45:50.097Z,100045.41
2023-01-29T09:48:18.618Z,100047.26
2023-01-29T14:12:41.838Z,99910.08
2023-01-29T14:15:35.204Z,99899.06
2023-01-29T14:18:26.931Z,99898.60
2023-01-29T14:21:18.241Z,99898.70
2023-01-29T14:23:50.329Z,99901.23
2023-01-29T14:26:32.145Z,99896.58
2023-01-29T14:29:35.055Z,99893.90
2023-01-29T14:32:08.257Z,99896.33
2023-01-29T14:34:45.424Z,99898.83
2023-01-29T14:37:18.006Z,99901.79
2023-01-29T14:39:53.437Z,99903.02
2023-01-29T14:42:48.226Z,99908.16
2023-01-29T14:45:43.699Z,99910.78
2023-01-29T14:48:12.780Z,99913.49
2023-01-29T14:50:42.401Z,99910.92
2023-01-29T14:53:41.889Z,99915.61
2023-01-29T14:56:14.369Z,99921.17
2023-01-29T14:58:53.650Z,99922.89
2023-01-29T15:01:30.862Z,99920.63
2023-01-29T15:04:14.536Z,99921.42
2023-01-29T15:07:02.011Z,99921.77
2023-01-29T15:09:54.209Z,99918.48
2023-01-29T15:12:41.435Z,99918.56
2023-01-29T15:15:34.239Z,99923.40
2023-01-29T15:18:20.006Z,99925.54
2023-01-29T15:20:51.851Z,99923.98
2023-01-29T15:23:27.834Z,99917.64
2023-01-29T15:25:58.905Z,99920.44
2023-01-29T15:28:34.757Z,99925.70
2023-01-29T15:31:07.399Z,99929.20
2023-01-29T15:33:36.372Z,99930.84
2023-01-29T15:36:07.645Z,99929.05
2023-01-29T15:38:37.049Z,99926.36
2023-01-29T15:41:20.017Z,99926.70
2023-01-29T15:43:51.920Z,99926.19
2023-01-29T15:46:39.174Z,99926.43
2023-01-29T15:49:33.907Z,99931.44
2023-01-29T15:52:17.823Z,99930.09
2023-01-29T15:54:51.688Z,99933.34
2023-01-29T15:57:27.171Z,99933.01
2023-01-29T15:59:59.605Z,99933.14
2023-01-29T16:02:40.205Z,99932.41
2023-01-29T16:05:19.368Z,99930.62
2023-01-29T16:07:53.081Z,99931.85
2023-01-29T16:10:28.850Z,99927.05
2023-01-29T16:12:58.572Z,99925.61
2023-01-29T16:16:09.014Z,99922.77
2023-01-29T16:18:57.917Z,99927.94
2023-01-29T16:21:40.954Z,99925.02
2023-01-29T16:24:16.507Z,99927.35
2023-01-29T16:26:47.215Z,99930.90
2023-01-29T16:29:21.707Z,99934.16
2023-01-29T16:31:52.493Z,99930.86
2023-01-29T16:34:44.842Z,99929.05
2023-01-29T16:37:21.934Z,99932.34
2023-01-29T16:39:53.118Z,99933.26
2023-01-29T16:42:25.947Z,99934.54
2023-01-29T16:44:57.365Z,99934.02
2023-01-29T16:47:32.918Z,99931.64
2023-01-29T16:50:46.387Z,99934.09
2023-01-29T16:53:32.813Z,99936.19
2023-01-29T16:56:07.104Z,99934.08
2023-01-29T16:58:37.232Z,99933.70
2023-01-29T17:01:09.658Z,99935.26
2023-01-29T17:03:40.619Z,99935.69
2023-01-29T17:06:11.949Z,99936.77
2023-01-29T17:08:48.497Z,99936.34
2023-01-29T17:11:49.383Z,99935.20
2023-01-29T17:14:20.349Z,99934.61
2023-01-29T17:16:57.013Z,99934.95
2023-01-29T17:19:26.133Z,99930.34
2023-01-29T17:21:59.184Z,99928.73
2023-01-29T17:24:27.792Z,99928.98
2023-01-29T17:27:00.729Z,99926.38
2023-01-29T17:29:34.570Z,99927.79
2023-01-29T17:32:05.450Z,99927.09
2023-01-29T17:34:37.561Z,99926.45
2023-01-29T17:37:13.617Z,99922.98
2023-01-29T17:39:50.610Z,99917.42
2023-01-29T17:42:35.948Z,99916.65
2023-01-29T17:45:13.715Z,99916.69
2023-01-29T17:47:47.250Z,99914.95
2023-01-29T21:57:08.799Z,99841.57
2023-01-29T21:59:52.874Z,99835.08
2023-01-29T22:02:33.558Z,99833.26
2023-01-29T22:05:18.289Z,99831.90
2023-01-29T22:07:49.860Z,99824.86
2023-01-29T22:10:19.528Z,99830.23
2023-01-29T22:13:02.214Z,99828.02
2023-01-29T22:15:35.966Z,99826.17
2023-01-29T22:18:07.568Z,99829.10
2023-01-29T22:20:37.463Z,99830.42
2023-01-29T22:23:08.292Z,99824.48
2023-01-29T22:25:36.574Z,99824.85
2023-01-29T22:28:05.196Z,99825.98
2023-01-29T22:30:34.674Z,99826.26
2023-01-29T22:33:04.108Z,99828.25
2023-01-29T22:36:15.102Z,99827.63
2023-01-29T22:38:42.710Z,99825.77
2023-01-29T22:41:10.020Z,99826.11
2023-01-29T22:43:37.990Z,99824.54
2023-01-29T22:46:08.519Z,99822.06
2023-01-29T22:48:39.595Z,99814.27
2023-01-29T22:51:13.239Z,99812.64
2023-01-29T22:53:49.604Z,99811.98
2023-01-29T22:56:20.265Z,99813.77
2023-01-29T22:58:53.671Z,99810.04
2023-01-29T23:01:24.992Z,99807.60
2023-01-29T23:03:54.264Z,99804.84
2023-01-29T23:06:21.975Z,99800.38
2023-01-29T23:08:51.993Z,99796.16
2023-01-29T23:11:23.160Z,99795.65
2023-01-29T23:13:56.050Z,99795.66
2023-01-29T23:16:26.809Z,99790.42
2023-01-29T23:18:54.941Z,99783.86
2023-01-29T23:21:25.689Z,99784.04
2023-01-29T23:23:54.811Z,99775.97
2023-01-29T23:26:40.748Z,99766.80
2023-01-29T23:29:08.636Z,99759.73
2023-01-29T23:31:36.614Z,99755.89
2023-01-29T23:34:03.691Z,99754.34
2023-01-29T23:36:35.730Z,99750.09
2023-01-29T23:39:06.625Z,99750.43
2023-01-29T23:41:37.039Z,99744.89
2023-01-29T23:44:05.287Z,99743.05
2023-01-29T23:46:33.456Z,99741.64
2023-01-29T23:49:04.106Z,99731.70
2023-01-29T23:51:31.644Z,99730.44
2023-01-29T23:54:00.546Z,99727.92
2023-01-29T23:56:29.841Z,99726.13
2023-01-29T23:58:58.505Z,99722.02
